ADDS METAR Data INFO
IDs: Format: Raw Decoded Include TAF

Data at: 0714 UTC 19 Oct 2017

KTGI 190613Z AUTO 17004KT 10SM CLR 16/11 A3031 RMK AO1
KTGI 190533Z AUTO 17005KT 10SM CLR 16/11 A3031 RMK AO1
KTGI 190513Z AUTO 17006KT 10SM CLR 16/10 A3031 RMK AO1
KTGI 190455Z AUTO 18005KT 10SM CLR 16/10 A3032 RMK AO1
KTGI 190413Z AUTO 17006KT 10SM CLR 16/10 A3033 RMK AO1
KTGI 190355Z AUTO 16006KT 10SM CLR 16/11 A3032 RMK AO1
KTGI 190333Z AUTO 16005KT 10SM CLR 16/11 A3033 RMK AO1
KTGI 190313Z AUTO 16005KT 10SM CLR 16/11 A3033 RMK AO1
KTGI 190253Z AUTO 15005KT 10SM CLR 16/11 A3033 RMK AO1
KTGI 190233Z AUTO 16004KT 10SM CLR 16/11 A3033 RMK AO1
KTGI 190213Z AUTO 17005KT 10SM CLR 15/11 A3033 RMK AO1
KTGI 190154Z AUTO 16004KT 10SM CLR 16/11 A3033 RMK AO1
KTGI 190133Z AUTO 19004KT 10SM CLR 16/09 A3033 RMK AO1
KTGI 190114Z AUTO 18004KT 10SM CLR 16/09 A3033 RMK AO1
KTGI 190053Z AUTO 17004KT 10SM CLR 16/09 A3033 RMK AO1
KTGI 190033Z AUTO 17005KT 10SM CLR 16/09 A3033 RMK AO1
KTGI 190015Z AUTO 17005KT 10SM CLR 16/09 A3033 RMK AO1
KTGI 182333Z AUTO 17004KT 10SM CLR 16/08 A3032 RMK AO1
KTGI 182313Z AUTO 17004KT 10SM CLR 16/08 A3032 RMK AO1
KTGI 182235Z AUTO 17004KT 10SM CLR 16/08 A3032 RMK AO1
KTGI 182213Z AUTO 18005KT 10SM CLR 16/07 A3033 RMK AO1
KTGI 182153Z AUTO 20005KT 10SM CLR 17/08 A3032 RMK AO1
KTGI 182115Z AUTO 22003KT 10SM CLR 18/08 A3033 RMK AO1
KTGI 182015Z AUTO 22003KT 10SM CLR 18/08 A3034 RMK AO1
KTGI 181855Z AUTO 23003KT 10SM CLR 18/10 A3035 RMK AO1
KTGI 181815Z AUTO 24003KT 10SM CLR 17/11 A3036 RMK AO1
KTGI 181754Z AUTO 28003KT 10SM CLR 18/11 A3037 RMK AO1
KTGI 181733Z AUTO 27003KT 10SM CLR 17/11 A3037 RMK AO1
KTGI 181713Z AUTO 25004KT 10SM CLR 18/11 A3038 RMK AO1
KTGI 181655Z AUTO 28004KT 10SM CLR 17/11 A3038 RMK AO1
KTGI 181635Z AUTO 00000KT 10SM CLR 17/10 A3040 RMK AO1
KTGI 181613Z AUTO 00000KT 10SM CLR 18/11 A3040 RMK AO1
KTGI 181553Z AUTO 28003KT 10SM CLR 17/11 A3041 RMK AO1
KTGI 181513Z AUTO 28003KT 10SM CLR 17/11 A3040 RMK AO1
KTGI 181453Z AUTO 32005KT 10SM CLR 17/11 A3040 RMK AO1
KTGI 181433Z AUTO 00000KT 10SM CLR 17/09 A3040 RMK AO1
KTGI 181413Z AUTO 00000KT 10SM CLR 16/09 A3040 RMK AO1
KTGI 181354Z AUTO 00000KT 10SM CLR 16/09 A3040 RMK AO1
KTGI 181313Z AUTO 00000KT 10SM CLR 16/09 A3040 RMK AO1
KTGI 181255Z AUTO 00000KT 10SM CLR 16/10 A3039 RMK AO1
KTGI 181233Z AUTO 00000KT 10SM CLR 15/09 A3038 RMK AO1
KTGI 181213Z AUTO 00000KT 10SM CLR 13/10 A3038 RMK AO1
KTGI 181133Z AUTO 00000KT 10SM CLR 12/08 A3036 RMK AO1
KTGI 181113Z AUTO 00000KT 10SM CLR 11/07 A3036 RMK AO1
KTGI 181054Z AUTO 00000KT 10SM CLR 12/07 A3035 RMK AO1
KTGI 181033Z AUTO 00000KT 10SM CLR 11/07 A3035 RMK AO1
KTGI 180753Z AUTO 00000KT 10SM CLR 12/07 A3032 RMK AO1
KTGI 180735Z AUTO 00000KT 10SM CLR 11/08 A3032 RMK AO1
KTGI 180713Z AUTO 00000KT 10SM CLR 11/08 A3033 RMK AO1
KTGI 180653Z AUTO 00000KT 10SM CLR 11/08 A3033 RMK AO1
KTGI 180635Z AUTO 00000KT 10SM CLR 11/07 A3033 RMK AO1
KTGI 180553Z AUTO 00000KT 10SM CLR 11/08 A3033 RMK AO1
KTGI 180515Z AUTO 00000KT 10SM CLR 12/08 A3033 RMK AO1
KTGI 180453Z AUTO 11003KT 10SM CLR 12/08 A3033 RMK AO1
KTGI 180433Z AUTO 09003KT 10SM CLR 12/08 A3034 RMK AO1
KTGI 180415Z AUTO 00000KT 10SM CLR 12/08 A3034 RMK AO1
KTGI 180354Z AUTO 00000KT 10SM CLR 12/07 A3034 RMK AO1
KTGI 180333Z AUTO 00000KT 10SM CLR 11/07 A3034 RMK AO1
KTGI 180315Z AUTO 00000KT 10SM CLR 12/07 A3034 RMK AO1
KTGI 180253Z AUTO 00000KT 10SM CLR 12/07 A3034 RMK AO1
KTGI 180233Z AUTO 00000KT 10SM CLR 12/06 A3034 RMK AO1
KTGI 180213Z AUTO 34003KT 10SM CLR 13/06 A3034 RMK AO1
KTGI 180154Z AUTO 00000KT 10SM CLR 13/06 A3033 RMK AO1
KTGI 180135Z AUTO 35004KT 10SM CLR 13/06 A3033 RMK AO1
KTGI 180113Z AUTO 33003KT 10SM CLR 13/06 A3033 RMK AO1
KTGI 180054Z AUTO 35004KT 10SM CLR 13/06 A3032 RMK AO1
KTGI 180034Z AUTO 34003KT 10SM CLR 13/06 A3032 RMK AO1
KTGI 180013Z AUTO 35004KT 10SM CLR 13/06 A3033 RMK AO1
KTGI 172353Z AUTO 00000KT 10SM CLR 13/05 A3033 RMK AO1
KTGI 172333Z AUTO 00000KT 10SM CLR 13/05 A3032 RMK AO1
KTGI 172313Z AUTO 35003KT 10SM CLR 13/05 A3031 RMK AO1
KTGI 172253Z AUTO 34005KT 10SM CLR 13/05 A3031 RMK AO1
KTGI 172233Z AUTO 34006KT 10SM CLR 13/05 A3030 RMK AO1
KTGI 172213Z AUTO 32006KT 10SM CLR 13/04 A3030 RMK AO1
KTGI 172153Z AUTO 31003KT 10SM CLR 14/04 A3030 RMK AO1
KTGI 172133Z AUTO 34005KT 10SM CLR 14/04 A3030 RMK AO1
KTGI 172113Z AUTO 33005KT 10SM CLR 14/04 A3030 RMK AO1
KTGI 171954Z AUTO 31004KT 10SM CLR 14/04 A3032 RMK AO1